Time;durP1;ratioP1;P1;durP2;ratioP2;P2;SDS_P1;SDS_P2;PMS_P1;PMS_P2;Temp;Humidity;BMP_temperature;BMP_pressure;BME280_temperature;BME280_humidity;BME280_pressure;Samples;Min_cycle;Max_cycle;Signal;HPM_P1;HPM_P2
2023/05/08 00:00:37;;;;;;;4.45;2.17;;;;;;;13.56;49.96;100346.41;5025525;28;20152;-18
2023/05/08 00:03:03;;;;;;;3.75;1.98;;;;;;;13.48;49.72;100360.16;5025455;28;20025;-17
2023/05/08 00:05:28;;;;;;;4.25;2.40;;;;;;;13.53;49.76;100350.38;5025790;28;20048;-18
2023/05/08 00:08:00;;;;;;;4.90;1.92;;;;;;;13.68;49.04;100349.94;5025341;28;20029;-19
2023/05/08 00:10:28;;;;;;;3.60;2.00;;;;;;;13.78;49.00;100347.47;5025456;28;20037;-17
2023/05/08 00:12:54;;;;;;;11.25;2.60;;;;;;;13.61;48.57;100335.84;5025059;28;20024;-18
2023/05/08 00:15:20;;;;;;;4.55;2.17;;;;;;;13.71;48.70;100332.56;5025491;28;20148;-18
2023/05/08 00:17:45;;;;;;;4.13;2.17;;;;;;;13.77;48.25;100350.38;5025775;28;20104;-18
2023/05/08 00:20:11;;;;;;;3.80;1.90;;;;;;;13.64;49.03;100352.25;5025204;28;20440;-18
2023/05/08 00:22:37;;;;;;;4.90;2.20;;;;;;;13.65;48.73;100340.50;5025230;28;20029;-19
2023/05/08 00:25:04;;;;;;;3.97;2.25;;;;;;;13.58;48.69;100347.00;5025185;28;20030;-18
2023/05/08 00:27:30;;;;;;;4.82;2.10;;;;;;;13.80;49.04;100352.63;5025362;28;20052;-19
2023/05/08 00:29:56;;;;;;;4.93;2.25;;;;;;;13.63;49.52;100347.94;5025290;28;20073;-18
2023/05/08 00:32:21;;;;;;;3.70;2.03;;;;;;;13.54;51.29;100352.00;5025172;28;20470;-17
2023/05/08 00:34:47;;;;;;;4.82;2.17;;;;;;;13.35;52.20;100353.16;5025186;28;20519;-18
2023/05/08 00:37:12;;;;;;;6.35;2.45;;;;;;;13.43;52.52;100345.59;5024778;28;20022;-18
2023/05/08 00:39:37;;;;;;;4.35;2.35;;;;;;;13.28;53.97;100350.56;5025345;28;20025;-19
2023/05/08 00:42:03;;;;;;;4.13;2.55;;;;;;;13.20;54.62;100350.88;5024819;28;20029;-19
2023/05/08 00:44:28;;;;;;;5.03;2.40;;;;;;;13.19;55.83;100350.03;5025241;28;20397;-18
2023/05/08 00:46:54;;;;;;;4.60;2.80;;;;;;;13.05;56.72;100348.59;5024592;28;20435;-23
2023/05/08 00:49:19;;;;;;;7.38;2.90;;;;;;;13.00;57.37;100356.53;5025339;28;20052;-18
2023/05/08 00:51:46;;;;;;;4.40;2.72;;;;;;;12.81;58.21;100348.53;5024814;28;20025;-20
2023/05/08 00:54:12;;;;;;;6.38;2.90;;;;;;;12.68;58.97;100354.06;5024945;28;20045;-18
2023/05/08 00:56:38;;;;;;;8.48;2.83;;;;;;;12.70;59.19;100357.31;5025023;28;20729;-17
2023/05/08 00:59:10;;;;;;;5.53;2.95;;;;;;;12.42;59.50;100334.63;5024851;28;20057;-18
2023/05/08 01:01:36;;;;;;;6.07;2.75;;;;;;;12.58;59.03;100353.78;5025141;28;20033;-18
2023/05/08 01:04:05;;;;;;;6.35;3.28;;;;;;;12.50;60.02;100356.75;5024589;28;20025;-17
2023/05/08 01:06:31;;;;;;;4.60;2.85;;;;;;;12.39;60.72;100359.13;5024797;28;20037;-18
2023/05/08 01:08:57;;;;;;;6.13;3.00;;;;;;;12.50;60.78;100354.88;5024699;28;20408;-18
2023/05/08 01:11:54;;;;;;;5.30;2.97;;;;;;;12.29;61.86;100364.19;5025169;28;20554;-20
2023/05/08 01:14:35;;;;;;;6.15;3.20;;;;;;;12.40;60.84;100367.97;5019715;28;20041;-17
2023/05/08 01:17:19;;;;;;;5.90;2.92;;;;;;;12.17;62.40;100368.63;5025003;28;20035;-18
2023/05/08 01:20:04;;;;;;;7.57;3.20;;;;;;;12.28;61.23;100365.25;5024885;28;20045;-19
2023/05/08 01:23:06;;;;;;;5.70;3.40;;;;;;;12.02;63.08;100361.00;5025749;28;20148;-18
2023/05/08 01:26:10;;;;;;;8.18;4.32;;;;;;;12.14;62.69;100366.44;5028580;28;20021;-18
2023/05/08 01:29:16;;;;;;;5.18;3.30;;;;;;;12.09;63.24;100372.41;5021950;28;20121;-19
2023/05/08 01:32:03;;;;;;;9.45;4.20;;;;;;;12.12;62.41;100380.00;5028457;28;20041;-17
2023/05/08 01:34:32;;;;;;;7.95;3.80;;;;;;;12.05;62.27;100380.09;5028731;28;20049;-18
2023/05/08 01:37:05;;;;;;;5.93;3.90;;;;;;;11.97;62.64;100371.50;5028406;28;20041;-18
2023/05/08 01:39:58;;;;;;;6.75;3.53;;;;;;;12.02;62.74;100383.19;5028306;28;20037;-18
2023/05/08 01:42:48;;;;;;;6.50;3.90;;;;;;;12.10;62.64;100391.97;5027877;28;20056;-18
2023/05/08 01:45:21;;;;;;;8.57;3.63;;;;;;;12.22;60.98;100382.19;5028230;28;20054;-17
2023/05/08 01:47:52;;;;;;;6.60;3.30;;;;;;;12.05;61.93;100389.94;5028038;28;20026;-19
2023/05/08 01:50:21;;;;;;;5.50;3.08;;;;;;;12.08;61.78;100394.03;5028209;28;20127;-18
2023/05/08 01:52:58;;;;;;;5.53;3.08;;;;;;;11.78;62.79;100366.09;5028313;28;20037;-18
2023/05/08 01:55:29;;;;;;;5.60;3.25;;;;;;;11.95;62.66;100397.63;5028343;28;20056;-18
2023/05/08 01:57:57;;;;;;;5.82;3.83;;;;;;;12.08;61.83;100370.00;5028332;28;20076;-19
2023/05/08 02:00:24;;;;;;;;;;;;;;;12.18;61.91;100399.69;5028653;28;20118;-18
2023/05/08 02:02:52;;;;;;;4.60;2.55;;;;;;;11.98;62.67;100387.34;5027797;28;19912;-18
2023/05/08 02:05:20;;;;;;;6.78;3.30;;;;;;;12.00;62.38;100373.75;5027771;28;20032;-18
2023/05/08 02:07:47;;;;;;;5.05;3.13;;;;;;;12.03;63.24;100384.84;5027990;28;20049;-18
2023/05/08 02:10:15;;;;;;;5.97;3.10;;;;;;;11.98;63.67;100387.34;5027898;28;20021;-18
2023/05/08 02:12:42;;;;;;;6.87;3.40;;;;;;;11.68;64.82;100370.31;5027731;28;20328;-18
2023/05/08 02:15:11;;;;;;;5.40;3.40;;;;;;;11.66;64.36;100387.34;5027737;28;20280;-18
2023/05/08 02:17:39;;;;;;;6.55;3.25;;;;;;;11.55;65.33;100366.72;5027575;28;20072;-19
2023/05/08 02:20:06;;;;;;;8.95;3.50;;;;;;;11.64;64.78;100392.09;5027461;28;20049;-17
2023/05/08 02:22:33;;;;;;;5.95;3.25;;;;;;;11.89;63.21;100377.97;5027647;28;20117;-18
2023/05/08 02:24:59;;;;;;;5.80;3.47;;;;;;;11.85;63.57;100379.41;5027179;28;20111;-18
2023/05/08 02:27:27;;;;;;;6.47;3.20;;;;;;;11.69;64.90;100387.97;5027906;28;20025;-19
2023/05/08 02:29:55;;;;;;;5.63;3.28;;;;;;;11.58;65.11;100378.81;5027515;28;20124;-19
2023/05/08 02:32:24;;;;;;;5.20;3.00;;;;;;;11.87;64.59;100380.03;5027506;28;20627;-18
2023/05/08 02:34:51;;;;;;;7.57;4.10;;;;;;;12.05;62.73;100388.09;5026826;28;20029;-17
2023/05/08 02:37:19;;;;;;;6.18;4.13;;;;;;;11.91;63.46;100367.88;5026981;28;20108;-18
2023/05/08 02:39:47;;;;;;;7.68;5.10;;;;;;;11.92;62.85;100358.81;5027093;28;20451;-19
2023/05/08 02:42:13;;;;;;;8.20;5.07;;;;;;;12.19;62.13;100366.56;5027033;28;20508;-19
2023/05/08 02:44:38;;;;;;;8.48;4.90;;;;;;;12.23;62.84;100368.56;5027032;28;20351;-18
2023/05/08 02:47:17;;;;;;;8.75;4.80;;;;;;;12.29;62.91;100377.56;5026901;28;20116;-18
2023/05/08 02:50:15;;;;;;;9.55;4.50;;;;;;;12.00;63.45;100379.91;5027073;28;20022;-18
2023/05/08 02:52:57;;;;;;;7.22;4.30;;;;;;;11.90;63.88;100373.44;5024927;28;20195;-20
2023/05/08 02:55:22;;;;;;;10.48;4.60;;;;;;;11.95;65.75;100387.78;5026891;28;20033;-18
2023/05/08 02:58:03;;;;;;;7.18;3.70;;;;;;;11.74;67.55;100390.81;5027238;28;21158;-18
2023/05/08 03:00:39;;;;;;;10.02;4.20;;;;;;;11.85;68.13;100382.91;5026834;28;20553;-23
2023/05/08 03:03:17;;;;;;;7.55;4.05;;;;;;;11.79;67.54;100382.94;5026981;28;20025;-18
2023/05/08 03:05:56;;;;;;;6.05;3.90;;;;;;;12.02;66.98;100390.38;5026716;28;20022;-18
2023/05/08 03:08:31;;;;;;;7.72;4.03;;;;;;;11.94;67.30;100396.81;5026931;28;20034;-18
2023/05/08 03:11:01;;;;;;;6.63;3.90;;;;;;;11.85;67.52;100371.41;5026783;28;20049;-18
2023/05/08 03:13:30;;;;;;;7.15;3.90;;;;;;;11.84;66.69;100391.13;5026737;28;20120;-20
2023/05/08 03:16:01;;;;;;;7.65;4.50;;;;;;;11.89;66.94;100388.66;5027003;28;20041;-17
2023/05/08 03:18:33;;;;;;;7.10;4.18;;;;;;;11.86;66.78;100384.53;5026577;28;20095;-17
2023/05/08 03:20:59;;;;;;;7.32;4.25;;;;;;;11.79;67.51;100393.63;5026568;28;20025;-21
2023/05/08 03:23:28;;;;;;;7.10;4.30;;;;;;;11.60;68.02;100384.75;5026517;28;20021;-18
2023/05/08 03:25:56;;;;;;;8.57;4.40;;;;;;;11.51;69.02;100402.91;5026460;28;20103;-17
2023/05/08 03:28:22;;;;;;;;;;;;;;;11.52;68.68;100407.19;5026765;28;20492;-18
2023/05/08 03:30:49;;;;;;;7.97;4.75;;;;;;;11.42;69.43;100389.00;5026459;28;19909;-18
2023/05/08 03:33:16;;;;;;;7.07;4.10;;;;;;;11.71;69.05;100407.25;5026055;28;20032;-17
2023/05/08 03:35:44;;;;;;;7.68;4.40;;;;;;;11.49;69.20;100399.63;5026024;28;20539;-19
2023/05/08 03:38:10;;;;;;;18.07;5.17;;;;;;;11.41;70.13;100392.69;5026267;28;20025;-19
2023/05/08 03:40:37;;;;;;;19.40;6.18;;;;;;;11.48;69.17;100384.63;5026136;28;20037;-19
2023/05/08 03:43:06;;;;;;;17.17;5.93;;;;;;;11.35;70.11;100392.75;5026004;28;20837;-18
2023/05/08 03:45:35;;;;;;;16.20;6.28;;;;;;;11.83;67.54;100402.88;5025328;28;20029;-19
2023/05/08 03:48:02;;;;;;;11.15;5.60;;;;;;;11.78;67.62;100403.50;5025769;28;20389;-19
2023/05/08 03:50:29;;;;;;;17.63;6.93;;;;;;;12.25;65.89;100405.78;5025867;28;20119;-19
2023/05/08 03:52:55;;;;;;;17.73;6.95;;;;;;;12.20;66.12;100409.13;5025904;28;20108;-18
2023/05/08 03:55:20;;;;;;;9.30;6.45;;;;;;;12.11;67.00;100412.31;5025477;28;20116;-18
2023/05/08 03:58:21;;;;;;;18.10;6.28;;;;;;;11.71;68.42;100417.94;5025781;28;20033;-18
2023/05/08 04:01:02;;;;;;;16.20;7.30;;;;;;;11.64;70.20;100418.81;5024108;28;20033;-18
2023/05/08 04:04:17;;;;;;;15.45;6.72;;;;;;;11.25;71.87;100393.22;5026132;28;20083;-20
2023/05/08 04:06:55;;;;;;;15.88;6.40;;;;;;;11.80;69.22;100428.16;5009325;28;20037;-18
2023/05/08 04:09:38;;;;;;;11.30;6.22;;;;;;;11.78;68.99;100422.22;5025784;28;20025;-19
2023/05/08 04:12:26;;;;;;;13.10;5.30;;;;;;;11.29;70.78;100398.94;5025520;28;20441;-18
2023/05/08 04:14:54;;;;;;;8.50;4.90;;;;;;;11.40;69.60;100412.44;5025569;28;20029;-18
2023/05/08 04:17:52;;;;;;;9.98;5.05;;;;;;;11.94;69.13;100442.25;5025496;28;20044;-18
2023/05/08 04:20:19;;;;;;;;;;;;;;;11.74;69.72;100433.56;5025357;28;20421;-18
2023/05/08 04:22:48;;;;;;;8.85;4.93;;;;;;;11.83;68.59;100432.25;5023948;28;19945;-18
2023/05/08 04:25:16;;;;;;;10.77;5.38;;;;;;;11.81;69.59;100434.31;5025307;28;20056;-18
2023/05/08 04:27:43;;;;;;;10.90;7.18;;;;;;;12.11;66.25;100439.03;5024938;28;20514;-18
2023/05/08 04:30:09;;;;;;;7.97;5.55;;;;;;;12.17;65.78;100432.81;5025369;28;20117;-19
2023/05/08 04:32:36;;;;;;;12.07;5.35;;;;;;;12.50;64.68;100437.00;5025184;28;20036;-18
2023/05/08 04:35:02;;;;;;;15.33;5.83;;;;;;;12.45;64.90;100435.81;5025113;28;20029;-18
2023/05/08 04:37:30;;;;;;;7.57;4.35;;;;;;;11.98;66.40;100424.75;5025369;28;20280;-19
2023/05/08 04:39:55;;;;;;;8.63;4.50;;;;;;;11.95;66.40;100419.84;5025097;28;20029;-18
2023/05/08 04:42:21;;;;;;;11.23;4.93;;;;;;;12.00;65.77;100425.34;5025110;28;20033;-18
2023/05/08 04:44:46;;;;;;;11.15;5.07;;;;;;;12.21;64.11;100426.78;5024614;28;20026;-20
2023/05/08 04:47:12;;;;;;;8.65;4.60;;;;;;;12.54;62.87;100422.94;5024920;28;20028;-17
2023/05/08 04:49:38;;;;;;;13.48;4.88;;;;;;;12.58;63.37;100428.69;5024394;28;20075;-18
2023/05/08 04:52:03;;;;;;;12.48;5.07;;;;;;;13.00;62.47;100420.78;5025021;28;20431;-18
2023/05/08 04:54:29;;;;;;;7.63;4.63;;;;;;;13.09;61.38;100435.47;5021686;28;20026;-18
2023/05/08 04:56:54;;;;;;;7.80;4.65;;;;;;;13.35;60.25;100437.00;5005008;28;20465;-17
2023/05/08 04:59:20;;;;;;;10.60;4.78;;;;;;;13.44;60.29;100440.16;5005158;28;20037;-19
2023/05/08 05:01:46;;;;;;;10.75;4.38;;;;;;;13.67;59.83;100447.47;5005193;28;20029;-19
2023/05/08 05:04:12;;;;;;;7.47;4.55;;;;;;;13.78;58.62;100421.72;5005254;28;20035;-19
2023/05/08 05:06:37;;;;;;;10.77;5.25;;;;;;;13.64;60.40;100434.50;5005132;28;20034;-18
2023/05/08 05:09:04;;;;;;;9.35;4.90;;;;;;;13.89;60.91;100444.22;5005158;28;20420;-19
2023/05/08 05:11:29;;;;;;;8.45;4.80;;;;;;;13.78;59.16;100435.94;5004888;28;20050;-18
2023/05/08 05:13:55;;;;;;;12.65;4.88;;;;;;;13.56;59.64;100435.66;5004791;28;20698;-19
2023/05/08 05:16:20;;;;;;;9.43;4.53;;;;;;;13.75;59.64;100438.25;5005105;28;20490;-19
2023/05/08 05:18:46;;;;;;;8.85;4.50;;;;;;;13.93;59.56;100430.13;5004496;28;20034;-18
2023/05/08 05:21:12;;;;;;;8.57;4.70;;;;;;;14.18;60.21;100434.44;5004958;28;20420;-18
2023/05/08 05:23:37;;;;;;;6.80;4.55;;;;;;;14.16;58.65;100433.84;5004698;28;20030;-17
2023/05/08 05:26:03;;;;;;;8.38;4.28;;;;;;;14.55;57.71;100436.88;5004814;28;20129;-19
2023/05/08 05:28:28;;;;;;;11.35;4.70;;;;;;;14.62;57.43;100434.91;5005106;28;20028;-19
2023/05/08 05:30:54;;;;;;;11.40;4.88;;;;;;;14.68;58.22;100427.78;5004859;28;20418;-19
2023/05/08 05:33:19;;;;;;;7.93;4.35;;;;;;;14.51;56.24;100427.69;5004566;28;20030;-18
2023/05/08 05:35:45;;;;;;;10.88;4.78;;;;;;;14.50;55.70;100423.34;5004645;28;20044;-18
2023/05/08 05:38:10;;;;;;;9.70;4.68;;;;;;;14.71;56.16;100425.44;5004589;28;20038;-18
2023/05/08 05:40:36;;;;;;;9.55;4.88;;;;;;;14.99;54.75;100429.19;5004875;28;20026;-18
2023/05/08 05:43:01;;;;;;;10.75;5.20;;;;;;;14.82;55.21;100427.28;5005229;28;20382;-19
2023/05/08 05:45:26;;;;;;;10.07;5.10;;;;;;;14.97;54.04;100415.19;5004547;28;20743;-18
2023/05/08 05:47:52;;;;;;;13.68;6.40;;;;;;;14.80;55.14;100425.88;5004585;28;20117;-18
2023/05/08 05:50:18;;;;;;;12.75;5.32;;;;;;;14.95;54.14;100411.94;5004521;28;20076;-18
2023/05/08 05:52:44;;;;;;;10.52;4.22;;;;;;;14.89;54.15;100410.22;5004808;28;20058;-19
2023/05/08 05:55:10;;;;;;;8.45;4.22;;;;;;;15.10;54.66;100412.25;5004627;28;20068;-19
2023/05/08 05:57:36;;;;;;;9.60;4.53;;;;;;;15.17;51.88;100417.47;5004788;28;20129;-19
2023/05/08 06:00:03;;;;;;;6.72;3.58;;;;;;;15.44;50.55;100423.03;5004409;28;20038;-20
2023/05/08 06:02:28;;;;;;;5.47;2.83;;;;;;;15.31;50.34;100420.66;5004648;28;20038;-18
2023/05/08 06:04:53;;;;;;;6.35;2.85;;;;;;;15.34;48.94;100406.75;5004590;28;20030;-18
2023/05/08 06:07:20;;;;;;;10.57;3.20;;;;;;;15.58;49.27;100413.59;5004359;28;20076;-19
2023/05/08 06:09:46;;;;;;;7.18;3.60;;;;;;;15.89;48.07;100419.50;5005799;28;20029;-19
2023/05/08 06:12:11;;;;;;;8.77;3.40;;;;;;;15.96;50.64;100411.28;5007828;28;20434;-18
2023/05/08 06:14:39;;;;;;;5.82;3.10;;;;;;;15.93;48.71;100404.50;5008136;28;20022;-18
2023/05/08 06:17:05;;;;;;;5.35;2.97;;;;;;;16.03;48.79;100406.53;5007589;28;20034;-17
2023/05/08 06:19:30;;;;;;;24.63;14.13;;;;;;;16.15;48.32;100403.75;5007441;28;20049;-19
2023/05/08 06:21:56;;;;;;;14.57;6.93;;;;;;;16.42;48.20;100395.78;5007605;28;20053;-18
2023/05/08 06:24:21;;;;;;;4.43;2.75;;;;;;;16.40;47.45;100392.50;5007722;28;20124;-18
2023/05/08 06:26:46;;;;;;;6.82;3.83;;;;;;;16.12;47.84;100396.16;5007746;28;20022;-18
2023/05/08 06:29:12;;;;;;;12.75;3.20;;;;;;;16.30;47.75;100392.38;5007396;28;20034;-19
2023/05/08 06:31:37;;;;;;;9.68;3.90;;;;;;;16.42;46.76;100396.56;5007438;28;20037;-18
2023/05/08 06:34:03;;;;;;;6.20;3.33;;;;;;;16.31;48.40;100386.75;5007524;28;20079;-19
2023/05/08 06:36:28;;;;;;;6.75;2.80;;;;;;;16.33;47.97;100398.09;5007638;28;20033;-18
2023/05/08 06:38:54;;;;;;;5.07;3.15;;;;;;;16.45;48.72;100396.09;5007161;28;20435;-18
2023/05/08 06:41:20;;;;;;;6.35;3.40;;;;;;;16.86;47.74;100396.63;5007102;28;20511;-18
2023/05/08 06:43:46;;;;;;;4.80;3.00;;;;;;;17.11;48.24;100394.44;5006882;28;20014;-18
2023/05/08 06:46:11;;;;;;;7.03;3.10;;;;;;;17.06;46.28;100395.19;5007175;28;20036;-19
2023/05/08 06:48:37;;;;;;;8.95;3.20;;;;;;;17.39;48.50;100382.59;5007288;28;20670;-18
2023/05/08 06:51:03;;;;;;;5.70;3.33;;;;;;;17.48;46.81;100379.16;5007160;28;20033;-18
2023/05/08 06:53:29;;;;;;;5.57;3.15;;;;;;;17.78;45.28;100387.75;5007242;28;20030;-18
2023/05/08 06:55:56;;;;;;;6.07;3.30;;;;;;;17.76;45.25;100384.50;5007059;28;20482;-19
2023/05/08 06:58:22;;;;;;;6.97;3.47;;;;;;;17.39;46.28;100387.97;5007268;28;20037;-18
2023/05/08 07:00:47;;;;;;;9.23;3.40;;;;;;;17.67;44.56;100378.75;5006713;28;20034;-18
2023/05/08 07:03:12;;;;;;;9.38;3.75;;;;;;;17.99;43.89;100386.03;5007334;28;20767;-19
2023/05/08 07:05:38;;;;;;;7.90;3.70;;;;;;;18.02;45.49;100380.94;5006808;28;20101;-17
2023/05/08 07:08:03;;;;;;;6.15;3.00;;;;;;;18.23;44.27;100381.06;5007105;28;20417;-19
2023/05/08 07:10:29;;;;;;;4.90;3.13;;;;;;;18.43;46.30;100377.66;5007051;28;20424;-18
2023/05/08 07:12:54;;;;;;;7.68;3.22;;;;;;;18.41;43.67;100369.00;5006555;28;20117;-19
2023/05/08 07:15:20;;;;;;;7.47;3.45;;;;;;;18.25;43.00;100378.91;5006916;28;20036;-17
2023/05/08 07:17:48;;;;;;;6.25;2.97;;;;;;;18.26;42.92;100369.72;5006785;28;20030;-19
2023/05/08 07:20:14;;;;;;;6.28;3.30;;;;;;;18.40;42.02;100359.25;5006652;28;20104;-18
2023/05/08 07:22:39;;;;;;;6.65;2.97;;;;;;;18.60;43.80;100366.63;5006381;28;20033;-20
2023/05/08 07:25:05;;;;;;;4.95;3.08;;;;;;;18.66;45.11;100363.66;5006715;28;20785;-18
2023/05/08 07:27:30;;;;;;;8.50;3.55;;;;;;;18.59;43.98;100362.28;5006578;28;20038;-18
2023/05/08 07:30:02;;;;;;;5.28;3.00;;;;;;;18.87;44.01;100352.94;5006790;28;20045;-18
2023/05/08 07:32:29;;;;;;;7.10;3.20;;;;;;;18.69;44.42;100356.91;5006627;28;20030;-22
2023/05/08 07:34:55;;;;;;;7.23;2.97;;;;;;;18.94;45.35;100349.97;5006296;28;20465;-18
2023/05/08 07:37:21;;;;;;;7.40;3.33;;;;;;;19.05;43.90;100357.84;5006523;28;20515;-19
2023/05/08 07:39:47;;;;;;;5.25;2.90;;;;;;;18.94;44.66;100352.69;5006249;28;20032;-18
2023/05/08 07:42:12;;;;;;;9.07;3.10;;;;;;;18.67;44.52;100337.47;5006252;28;20029;-20
2023/05/08 07:44:40;;;;;;;6.97;2.55;;;;;;;19.19;44.92;100355.44;5006193;28;20113;-18
2023/05/08 07:47:06;;;;;;;5.60;2.78;;;;;;;19.24;43.77;100352.72;5006089;28;20409;-18
2023/05/08 07:49:31;;;;;;;8.55;2.70;;;;;;;19.26;43.81;100341.66;5006467;28;20488;-20
2023/05/08 07:52:02;;;;;;;7.90;2.97;;;;;;;19.41;46.48;100349.78;5005888;28;20092;-18
2023/05/08 07:54:27;;;;;;;6.03;2.75;;;;;;;19.50;45.55;100344.63;5006365;28;20107;-18
2023/05/08 07:56:53;;;;;;;5.60;2.95;;;;;;;19.25;45.24;100343.53;5005943;28;20913;-19
2023/05/08 07:59:18;;;;;;;8.15;2.67;;;;;;;19.80;42.79;100359.25;5005974;28;20049;-18
2023/05/08 08:01:46;;;;;;;8.13;2.70;;;;;;;19.87;41.98;100357.84;5005667;28;20156;-17
2023/05/08 08:04:14;;;;;;;5.43;2.45;;;;;;;20.02;41.71;100351.63;5005972;28;20540;-19
2023/05/08 08:06:42;;;;;;;5.43;2.88;;;;;;;20.25;42.43;100333.13;5005835;28;20541;-18
2023/05/08 08:09:11;;;;;;;4.78;2.55;;;;;;;20.55;41.58;100342.19;5005775;28;20770;-18
2023/05/08 08:11:41;;;;;;;6.28;2.88;;;;;;;20.48;40.30;100332.47;5005637;28;20030;-17
2023/05/08 08:14:07;;;;;;;4.65;2.58;;;;;;;20.23;42.01;100340.72;5005879;28;20033;-18
2023/05/08 08:16:38;;;;;;;5.43;2.60;;;;;;;20.38;40.40;100337.94;5005541;28;20030;-19
2023/05/08 08:19:06;;;;;;;7.82;2.80;;;;;;;20.34;41.54;100331.47;5005502;28;20113;-22
2023/05/08 08:21:31;;;;;;;5.05;2.35;;;;;;;20.71;41.87;100324.00;5005679;28;20036;-19
2023/05/08 08:23:59;;;;;;;6.03;2.65;;;;;;;20.83;40.26;100327.19;5005530;28;20022;-21
2023/05/08 08:26:25;;;;;;;10.98;3.05;;;;;;;20.89;43.13;100317.13;5005674;28;20041;-18
2023/05/08 08:28:51;;;;;;;5.75;3.10;;;;;;;21.24;39.13;100322.25;5005285;28;20034;-18
2023/05/08 08:31:18;;;;;;;5.00;2.53;;;;;;;21.09;40.54;100330.53;5005500;28;20045;-18
2023/05/08 08:33:43;;;;;;;10.48;2.97;;;;;;;21.45;41.05;100314.81;5004995;28;20452;-18
2023/05/08 08:39:34;;;;;;;8.52;2.65;;;;;;;21.92;39.26;100314.31;5005468;28;20076;-17
2023/05/08 08:45:21;;;;;;;4.65;2.10;;;;;;;21.55;40.44;100305.75;5005138;28;20425;-18
2023/05/08 08:47:47;;;;;;;5.35;2.70;;;;;;;21.93;39.27;100305.91;5005338;28;20042;-18
2023/05/08 08:50:14;;;;;;;4.75;2.47;;;;;;;22.03;38.71;100299.56;5005243;28;20053;-18
2023/05/08 08:52:59;;;;;;;8.10;2.80;;;;;;;22.44;37.46;100297.16;5005069;28;20034;-23
2023/05/08 08:55:28;;;;;;;8.15;3.10;;;;;;;22.55;37.82;100305.97;5005154;28;20033;-18
2023/05/08 08:58:16;;;;;;;11.00;3.80;;;;;;;22.78;38.41;100295.31;5005267;28;20507;-19
2023/05/08 09:01:17;;;;;;;7.43;2.65;;;;;;;23.08;36.65;100301.41;5005128;28;20034;-19
2023/05/08 09:49:59;;;;;;;5.07;2.53;;;;;;;24.10;36.25;100223.28;5007739;28;20044;-19
2023/05/08 09:52:27;;;;;;;10.15;2.88;;;;;;;24.62;35.60;100228.41;5008312;28;20030;-18
2023/05/08 09:55:06;;;;;;;5.32;2.47;;;;;;;24.37;36.95;100216.16;5008068;28;20116;-18
2023/05/08 09:57:38;;;;;;;6.35;2.78;;;;;;;24.27;38.38;100218.03;5008625;28;20038;-18
2023/05/08 10:00:11;;;;;;;5.28;2.60;;;;;;;24.51;35.81;100222.41;5007121;28;20029;-18
2023/05/08 10:02:41;;;;;;;4.53;2.63;;;;;;;24.65;35.61;100209.53;5007957;28;20022;-25
2023/05/08 10:05:31;;;;;;;4.00;2.20;;;;;;;24.93;35.51;100214.03;5008189;28;20145;-20
2023/05/08 10:08:19;;;;;;;3.97;2.30;;;;;;;25.06;35.45;100213.16;5007245;28;20050;-19
2023/05/08 10:10:46;;;;;;;8.75;2.60;;;;;;;25.23;34.28;100205.09;5007955;28;20137;-18
2023/05/08 10:13:11;;;;;;;3.95;2.47;;;;;;;25.75;33.75;100195.50;5007999;28;20033;-18
2023/05/08 10:15:37;;;;;;;6.57;2.75;;;;;;;25.70;35.08;100201.09;5007908;28;20338;-23
2023/05/08 10:18:05;;;;;;;7.18;2.53;;;;;;;25.28;37.13;100203.38;5007340;28;20065;-19
2023/05/08 10:20:32;;;;;;;7.28;2.60;;;;;;;25.23;36.60;100193.38;5007006;28;20034;-18
2023/05/08 10:22:58;;;;;;;6.50;2.90;;;;;;;25.34;36.25;100186.53;5007478;28;20117;-19
2023/05/08 10:25:25;;;;;;;5.70;2.58;;;;;;;25.53;36.52;100189.00;5007520;28;20041;-19
2023/05/08 10:27:56;;;;;;;7.15;2.70;;;;;;;26.00;35.29;100194.75;5007023;28;20072;-18
2023/05/08 10:30:26;;;;;;;3.92;2.28;;;;;;;25.81;34.63;100186.03;5007126;28;20099;-18
2023/05/08 10:32:57;;;;;;;3.95;2.30;;;;;;;26.46;35.30;100187.06;5007428;28;20032;-20
2023/05/08 10:35:22;;;;;;;5.80;2.97;;;;;;;26.32;34.07;100179.03;5007820;28;20551;-19
2023/05/08 10:37:48;;;;;;;5.05;2.42;;;;;;;26.52;35.38;100183.03;5007343;28;20032;-19
2023/05/08 10:40:14;;;;;;;6.97;3.40;;;;;;;26.27;34.94;100181.91;5007221;28;20030;-20
2023/05/08 10:42:40;;;;;;;5.57;2.33;;;;;;;26.16;34.83;100175.16;5007643;28;20475;-18
2023/05/08 10:45:08;;;;;;;5.10;3.33;;;;;;;26.01;34.30;100174.50;5007639;28;20160;-22
2023/05/08 10:47:55;;;;;;;4.32;2.55;;;;;;;26.22;34.54;100168.41;5007754;28;20080;-19
2023/05/08 10:50:51;;;;;;;6.68;2.72;;;;;;;26.29;34.62;100163.25;5007301;28;20437;-18
2023/05/08 10:53:25;;;;;;;5.45;2.60;;;;;;;26.73;35.14;100166.78;5007190;28;20120;-19
2023/05/08 10:55:51;;;;;;;4.78;3.42;;;;;;;26.30;35.36;100153.94;5006519;28;20117;-18
2023/05/08 10:58:22;;;;;;;6.30;2.65;;;;;;;25.98;34.91;100158.75;5007257;28;20035;-19
2023/05/08 11:00:48;;;;;;;6.65;2.85;;;;;;;26.49;35.78;100152.81;5007338;28;20034;-18
2023/05/08 11:03:16;;;;;;;6.00;2.97;;;;;;;26.73;34.76;100147.63;5006914;28;20026;-18
2023/05/08 11:05:46;;;;;;;6.95;4.05;;;;;;;26.85;33.05;100155.97;5006996;28;20022;-19
2023/05/08 11:08:28;;;;;;;5.40;3.20;;;;;;;27.75;31.47;100164.31;5006962;28;20034;-18
2023/05/08 11:11:03;;;;;;;4.35;2.78;;;;;;;27.32;32.15;100151.63;5006831;28;20600;-19
2023/05/08 11:13:55;;;;;;;8.50;2.90;;;;;;;27.59;32.38;100153.91;5006780;28;20084;-19
2023/05/08 11:17:04;;;;;;;5.15;2.92;;;;;;;27.64;31.69;100142.78;4997962;28;20722;-18
2023/05/08 11:19:29;;;;;;;8.00;3.13;;;;;;;27.30;32.94;100142.94;5006633;28;20034;-18
2023/05/08 11:22:14;;;;;;;5.55;2.92;;;;;;;27.39;33.19;100130.81;5006764;28;20033;-18
2023/05/08 11:25:07;;;;;;;4.25;3.03;;;;;;;27.74;32.16;100125.13;5006929;28;20030;-19
2023/05/08 11:27:49;;;;;;;5.63;3.00;;;;;;;27.78;31.68;100128.00;5007045;28;20125;-20
2023/05/08 11:30:34;;;;;;;7.65;3.78;;;;;;;28.47;31.03;100131.34;5006215;28;20038;-18
2023/05/08 11:33:03;;;;;;;6.82;3.10;;;;;;;28.14;32.29;100129.38;5006636;28;20119;-18
2023/05/08 11:35:57;;;;;;;7.75;3.20;;;;;;;28.16;31.94;100132.59;5006420;28;20059;-20
2023/05/08 11:38:24;;;;;;;6.32;3.15;;;;;;;28.21;32.28;100135.13;5004170;28;20536;-22
2023/05/08 11:40:56;;;;;;;8.05;4.35;;;;;;;28.21;32.77;100129.63;5006465;28;20466;-19
2023/05/08 11:43:31;;;;;;;6.43;3.10;;;;;;;29.02;31.57;100130.13;5006226;28;20497;-17
2023/05/08 11:46:07;;;;;;;7.35;3.30;;;;;;;28.45;30.54;100121.50;5006393;28;20032;-19
2023/05/08 11:48:34;;;;;;;5.88;3.17;;;;;;;28.36;31.40;100119.97;5006332;28;20605;-19
2023/05/08 11:51:00;;;;;;;5.68;3.22;;;;;;;28.23;31.93;100116.38;5006180;28;20034;-21
2023/05/08 11:53:26;;;;;;;6.70;3.25;;;;;;;28.11;32.90;100108.91;5006356;28;20065;-19
2023/05/08 11:55:56;;;;;;;5.88;3.30;;;;;;;28.68;31.42;100103.88;5006277;28;20037;-19
2023/05/08 11:58:22;;;;;;;4.75;2.92;;;;;;;28.78;31.75;100104.22;5006194;28;20034;-19
2023/05/08 12:00:48;;;;;;;8.30;3.25;;;;;;;29.01;31.65;100101.03;5005897;28;20037;-19
2023/05/08 12:03:19;;;;;;;5.15;3.20;;;;;;;29.33;30.30;100093.88;5005895;28;20505;-21
2023/05/08 12:05:45;;;;;;;5.40;3.92;;;;;;;29.74;33.11;100082.97;5005572;28;20030;-19
2023/05/08 12:08:18;;;;;;;8.70;3.78;;;;;;;29.13;31.15;100086.56;5005201;28;20088;-19
2023/05/08 12:10:55;;;;;;;7.85;3.50;;;;;;;28.64;30.64;100084.53;5005736;28;20493;-19
2023/05/08 13:16:48;;;;;;;7.28;3.47;;;;;;;26.61;34.28;100049.03;5005159;28;20347;-20
2023/05/08 13:19:14;;;;;;;5.57;3.28;;;;;;;26.63;34.11;100044.03;5007124;28;20068;-19
2023/05/08 13:21:40;;;;;;;4.55;3.17;;;;;;;26.77;34.35;100041.91;5009025;28;20108;-19
2023/05/08 13:24:06;;;;;;;6.13;3.30;;;;;;;26.75;34.86;100049.63;5009198;28;20030;-19
2023/05/08 13:26:31;;;;;;;4.93;3.08;;;;;;;27.10;34.37;100048.66;5008958;28;20037;-19
2023/05/08 13:28:57;;;;;;;5.63;3.15;;;;;;;27.09;33.23;100045.13;5008739;28;20618;-19
2023/05/08 13:31:23;;;;;;;6.15;3.30;;;;;;;27.35;32.82;100038.72;5009064;28;20472;-20
2023/05/08 13:33:48;;;;;;;6.95;3.22;;;;;;;27.45;32.15;100038.31;5008601;28;20018;-20